Navios*hios — SXJH — position and weather

sailwx.info

Track history (hours):
 
Tides and Currents Weather Stations Pressure Air Temp Water Temp Dewpoint Dewpoint Depression Visibility Wind Speed Wind Dir Waves Ship Positions

Navios*hios

Last reported at 2015-Mar-27 00:33 UTC. Time now 2015-Apr-02 03:08 UTC.
Position N 31°01' E 032°19'.

Length 183 m; draft 12.2 m.

Type: Cargo ship. MMSI: 240149000.

Date/timePositionNaut miles runAvg speedWind from/ knotsBaromVisibWave heightAir tempDewpointWater temp
2015-Mar-27 00:33N 31°01' E 032°19'9 8.9
2015-Mar-26 23:33N 31°10' E 032°18'12 6.1
2015-Mar-26 21:33N 31°22' E 032°22'4 1.7
2015-Mar-26 19:29N 31°23' E 032°18'0 0.0
2015-Mar-26 14:31N 31°23' E 032°18'0 0.0
2015-Mar-26 13:22N 31°23' E 032°18'24 1.2
2015-Mar-25 17:09N 31°42' E 032°00'  
2015-Mar-22 09:21N 36°20' E 014°39'910.3
2015-Mar-22 08:32N 36°23' E 014°29'1010.1
2015-Mar-22 07:33N 36°26' E 014°17'1110.0
2015-Mar-22 06:29N 36°29' E 014°04'9 9.4
2015-Mar-22 05:31N 36°31' E 013°53'9 9.2
2015-Mar-22 04:32N 36°34' E 013°43'373 8.9
2015-Mar-20 10:28N 37°20' E 005°59'9 9.5
2015-Mar-20 09:32N 37°19' E 005°48'10 9.6
2015-Mar-20 08:32N 37°20' E 005°36'9 9.2
2015-Mar-20 07:33N 37°21' E 005°25'9 8.9
2015-Mar-20 06:33N 37°20' E 005°13'9 9.0
2015-Mar-20 05:32N 37°20' E 005°02'36 9.1
2015-Mar-20 01:33N 37°20' E 004°16'12 9.4
2015-Mar-20 00:15N 37°20' E 004°01'7 9.6
2015-Mar-19 23:33N 37°19' E 003°52'2110.0
2015-Mar-19 21:28N 37°15' E 003°27'9 9.6
2015-Mar-19 20:33N 37°13' E 003°16'9 9.1
2015-Mar-19 19:33N 37°11' E 003°05'10 9.5
2015-Mar-19 18:33N 37°10' E 002°53'10 9.6
2015-Mar-19 17:34N 37°08' E 002°41'10 9.7
2015-Mar-19 16:33N 37°06' E 002°29'10 9.9
2015-Mar-19 15:33N 37°04' E 002°17'12 9.7
2015-Mar-19 14:19N 37°01' E 002°02'7 9.5
2015-Mar-19 13:33N 37°01' E 001°53'  
Track history (hours):
 
Tides and Currents Weather Stations Pressure Air Temp Water Temp Dewpoint Dewpoint Depression Visibility Wind Speed Wind Dir Waves Ship Positions

Navios*hios

Last reported at 2015-Mar-27 00:33 UTC. Time now 2015-Apr-02 03:08 UTC.
Position N 31°01' E 032°19'.

Length 183 m; draft 12.2 m.

Type: Cargo ship. MMSI: 240149000.

Date/timePositionNaut miles runAvg speedWind from/ knotsBaromVisibWave heightAir tempDewpointWater temp
2015-Mar-27 00:33N 31°01' E 032°19'9 8.9
2015-Mar-26 23:33N 31°10' E 032°18'12 6.1
2015-Mar-26 21:33N 31°22' E 032°22'4 1.7
2015-Mar-26 19:29N 31°23' E 032°18'0 0.0
2015-Mar-26 14:31N 31°23' E 032°18'0 0.0
2015-Mar-26 13:22N 31°23' E 032°18'24 1.2
2015-Mar-25 17:09N 31°42' E 032°00'  
2015-Mar-22 09:21N 36°20' E 014°39'910.3
2015-Mar-22 08:32N 36°23' E 014°29'1010.1
2015-Mar-22 07:33N 36°26' E 014°17'1110.0
2015-Mar-22 06:29N 36°29' E 014°04'9 9.4
2015-Mar-22 05:31N 36°31' E 013°53'9 9.2
2015-Mar-22 04:32N 36°34' E 013°43'373 8.9
2015-Mar-20 10:28N 37°20' E 005°59'9 9.5
2015-Mar-20 09:32N 37°19' E 005°48'10 9.6
2015-Mar-20 08:32N 37°20' E 005°36'9 9.2
2015-Mar-20 07:33N 37°21' E 005°25'9 8.9
2015-Mar-20 06:33N 37°20' E 005°13'9 9.0
2015-Mar-20 05:32N 37°20' E 005°02'36 9.1
2015-Mar-20 01:33N 37°20' E 004°16'12 9.4
2015-Mar-20 00:15N 37°20' E 004°01'7 9.6
2015-Mar-19 23:33N 37°19' E 003°52'2110.0
2015-Mar-19 21:28N 37°15' E 003°27'9 9.6
2015-Mar-19 20:33N 37°13' E 003°16'9 9.1
2015-Mar-19 19:33N 37°11' E 003°05'10 9.5
2015-Mar-19 18:33N 37°10' E 002°53'10 9.6
2015-Mar-19 17:34N 37°08' E 002°41'10 9.7
2015-Mar-19 16:33N 37°06' E 002°29'10 9.9
2015-Mar-19 15:33N 37°04' E 002°17'12 9.7
2015-Mar-19 14:19N 37°01' E 002°02'7 9.5
2015-Mar-19 13:33N 37°01' E 001°53'  

Dump ship's entire track history